createdAt,value
2023-04-30T00:01:00.739Z,101063.20
2023-04-30T00:03:47.257Z,101063.02
2023-04-30T00:06:34.211Z,101065.30
2023-04-30T00:09:20.855Z,101062.80
2023-04-30T00:12:07.255Z,101069.11
2023-04-30T00:14:56.298Z,101073.73
2023-04-30T00:17:42.854Z,101079.55
2023-04-30T00:20:29.387Z,101086.13
2023-04-30T00:23:15.630Z,101084.04
2023-04-30T00:26:02.747Z,101095.05
2023-04-30T00:28:49.226Z,101103.27
2023-04-30T00:31:35.797Z,101094.45
2023-04-30T00:34:22.332Z,101111.55
2023-04-30T00:37:09.092Z,101115.27
2023-04-30T00:39:55.700Z,101115.31
2023-04-30T00:42:42.752Z,101124.01
2023-04-30T00:45:29.306Z,101126.31
2023-04-30T00:48:16.719Z,101132.86
2023-04-30T00:51:04.582Z,101132.83
2023-04-30T00:53:51.235Z,101139.95
2023-04-30T00:56:37.719Z,101140.27
2023-04-30T00:59:25.356Z,101145.91
2023-04-30T01:02:13.514Z,101148.83
2023-04-30T01:05:00.006Z,101148.56
2023-04-30T01:07:46.487Z,101150.95
2023-04-30T01:10:56.556Z,101156.19
2023-04-30T01:14:10.726Z,101156.61
2023-04-30T01:17:08.805Z,101155.36
2023-04-30T01:19:56.448Z,101162.52
2023-04-30T01:22:52.838Z,101158.83
2023-04-30T01:25:39.369Z,101163.90
2023-04-30T01:28:28.573Z,101162.14
2023-04-30T01:31:16.622Z,101167.64
2023-04-30T01:34:02.926Z,101166.64
2023-04-30T01:37:01.452Z,101166.94
2023-04-30T01:40:00.896Z,101174.46
2023-04-30T01:43:34.022Z,101178.42
2023-04-30T01:46:30.510Z,101186.27
2023-04-30T01:49:51.929Z,101189.02
2023-04-30T01:52:46.444Z,101193.23
2023-04-30T01:55:35.683Z,101199.86
2023-04-30T01:58:24.761Z,101198.98
2023-04-30T02:01:29.903Z,101205.51
2023-04-30T02:04:16.493Z,101208.46
2023-04-30T02:07:02.868Z,101210.29
2023-04-30T02:09:49.464Z,101211.64
2023-04-30T02:12:36.215Z,101209.88
2023-04-30T02:15:23.197Z,101210.74
2023-04-30T02:18:09.847Z,101215.97
2023-04-30T02:20:56.489Z,101217.94
2023-04-30T02:23:42.931Z,101222.10
2023-04-30T02:26:29.382Z,101228.17
2023-04-30T02:29:16.072Z,101228.16
2023-04-30T02:32:02.692Z,101221.84
2023-04-30T02:34:49.828Z,101224.39
2023-04-30T02:37:36.290Z,101222.86
2023-04-30T02:40:23.267Z,101224.60
2023-04-30T02:43:09.866Z,101221.27
2023-04-30T02:45:56.862Z,101228.54
2023-04-30T02:48:43.461Z,101237.83
2023-04-30T02:51:29.787Z,101236.92
2023-04-30T02:54:16.361Z,101240.41
2023-04-30T02:57:03.283Z,101242.96
2023-04-30T02:59:50.053Z,101244.05
2023-04-30T03:02:36.811Z,101243.37
2023-04-30T03:05:24.184Z,101238.41
2023-04-30T03:08:10.799Z,101246.98
2023-04-30T03:10:57.352Z,101248.88
2023-04-30T03:13:43.864Z,101256.93
2023-04-30T03:16:31.179Z,101259.46
2023-04-30T03:19:22.170Z,101262.02
2023-04-30T03:22:10.959Z,101265.38
2023-04-30T03:24:57.148Z,101273.16
2023-04-30T03:27:43.869Z,101276.72
2023-04-30T03:30:30.322Z,101276.23
2023-04-30T03:33:17.022Z,101285.67
2023-04-30T03:36:03.845Z,101279.39
2023-04-30T03:38:50.360Z,101288.13
2023-04-30T03:41:37.156Z,101288.95
2023-04-30T03:44:23.630Z,101282.25
2023-04-30T03:47:10.887Z,101293.74
2023-04-30T03:49:57.781Z,101297.76
2023-04-30T03:52:45.878Z,101300.25
2023-04-30T03:55:34.301Z,101306.11
2023-04-30T03:58:21.436Z,101305.98
2023-04-30T04:01:08.128Z,101309.23
2023-04-30T04:03:54.713Z,101303.14
2023-04-30T04:06:41.871Z,101305.15
2023-04-30T04:09:28.518Z,101304.70
2023-04-30T04:12:15.152Z,101323.08
2023-04-30T04:15:01.704Z,101321.16
2023-04-30T04:17:48.884Z,101329.91
2023-04-30T04:20:35.408Z,101323.70
2023-04-30T04:23:22.678Z,101335.84
2023-04-30T04:26:08.810Z,101338.18
2023-04-30T04:28:55.550Z,101342.55
2023-04-30T04:31:42.914Z,101344.22
2023-04-30T04:34:30.586Z,101346.92
2023-04-30T04:37:17.749Z,101346.42
2023-04-30T04:40:05.240Z,101355.89
2023-04-30T04:42:52.120Z,101354.02
2023-04-30T04:45:40.766Z,101358.64
2023-04-30T04:48:27.321Z,101363.42
2023-04-30T04:51:13.876Z,101360.25
2023-04-30T04:54:00.199Z,101368.03
2023-04-30T04:56:47.200Z,101369.80
2023-04-30T04:59:34.855Z,101373.49
2023-04-30T05:02:23.322Z,101377.84
2023-04-30T05:05:11.063Z,101383.24
2023-04-30T05:07:57.579Z,101385.36
2023-04-30T05:10:44.069Z,101388.20
2023-04-30T05:13:30.383Z,101389.84
2023-04-30T05:16:17.495Z,101391.55
2023-04-30T05:19:03.936Z,101395.09
2023-04-30T05:21:51.302Z,101400.42
2023-04-30T05:24:38.158Z,101408.20
2023-04-30T05:27:24.625Z,101408.74
2023-04-30T05:30:11.628Z,101407.13
2023-04-30T05:32:58.215Z,101412.38
2023-04-30T05:35:44.856Z,101416.11
2023-04-30T05:38:31.309Z,101414.23
2023-04-30T05:41:17.865Z,101416.00
2023-04-30T05:44:05.242Z,101418.90
2023-04-30T05:46:51.691Z,101423.91
2023-04-30T05:49:38.082Z,101427.92
2023-04-30T05:52:24.450Z,101428.02
2023-04-30T05:55:11.281Z,101431.77
2023-04-30T05:57:57.900Z,101436.40
2023-04-30T06:00:44.516Z,101442.52
2023-04-30T06:03:31.460Z,101444.10
2023-04-30T06:06:17.796Z,101443.58
2023-04-30T06:09:04.213Z,101449.42
2023-04-30T06:11:52.151Z,101446.08
2023-04-30T06:14:39.227Z,101446.35
2023-04-30T06:17:25.746Z,101448.39
2023-04-30T06:20:12.439Z,101454.39
2023-04-30T06:23:00.202Z,101451.70
2023-04-30T06:25:46.710Z,101453.92
2023-04-30T06:28:33.001Z,101454.77
2023-04-30T06:31:19.323Z,101456.74
2023-04-30T06:34:05.919Z,101452.30
2023-04-30T06:36:52.613Z,101454.31
2023-04-30T06:39:38.982Z,101455.86
2023-04-30T06:42:25.224Z,101453.08
2023-04-30T06:45:15.239Z,101455.49
2023-04-30T06:48:02.015Z,101454.54
2023-04-30T06:50:48.308Z,101454.23
2023-04-30T06:53:34.893Z,101457.95
2023-04-30T06:56:22.122Z,101456.29
2023-04-30T06:59:08.795Z,101462.73
2023-04-30T07:01:55.580Z,101464.36
2023-04-30T07:04:42.250Z,101467.94
2023-04-30T07:07:29.031Z,101465.93
2023-04-30T07:10:15.929Z,101462.02
2023-04-30T07:13:02.141Z,101469.88
2023-04-30T07:15:48.706Z,101472.60
2023-04-30T07:18:35.340Z,101473.50
2023-04-30T07:21:22.004Z,101473.49
2023-04-30T07:24:08.779Z,101470.04
2023-04-30T07:26:54.992Z,101474.03
2023-04-30T07:29:41.488Z,101478.75
2023-04-30T07:32:27.861Z,101480.20
2023-04-30T07:35:14.873Z,101481.20
2023-04-30T07:38:01.003Z,101477.52
2023-04-30T07:40:47.459Z,101489.38
2023-04-30T07:43:34.064Z,101491.19
2023-04-30T07:46:20.577Z,101492.73
2023-04-30T07:49:06.938Z,101493.12
2023-04-30T07:51:53.375Z,101491.48
2023-04-30T07:54:40.148Z,101497.44
2023-04-30T07:57:27.092Z,101493.05
2023-04-30T08:00:15.220Z,101492.94
2023-04-30T08:03:02.200Z,101492.77
2023-04-30T08:05:49.206Z,101493.45
2023-04-30T08:08:35.736Z,101499.47
2023-04-30T08:11:21.958Z,101498.73
2023-04-30T08:14:08.184Z,101494.13
2023-04-30T08:16:54.390Z,101500.73
2023-04-30T08:19:40.877Z,101497.95
2023-04-30T08:22:27.403Z,101506.77
2023-04-30T08:25:13.932Z,101507.73
2023-04-30T08:28:00.769Z,101509.52
2023-04-30T08:30:47.253Z,101509.65
2023-04-30T08:33:33.783Z,101516.08
2023-04-30T08:36:20.440Z,101523.60
2023-04-30T08:39:08.008Z,101519.35
2023-04-30T08:41:56.680Z,101530.10
2023-04-30T08:44:46.029Z,101528.79
2023-04-30T08:47:33.056Z,101534.00
2023-04-30T08:50:19.685Z,101530.44
2023-04-30T08:53:08.685Z,101528.91
2023-04-30T08:55:55.238Z,101533.55
2023-04-30T08:58:41.602Z,101539.02
2023-04-30T09:01:31.089Z,101543.17
2023-04-30T09:04:17.981Z,101540.30
2023-04-30T09:07:05.576Z,101537.63
2023-04-30T09:09:53.971Z,101542.17
2023-04-30T09:12:43.444Z,101541.72
2023-04-30T09:15:31.113Z,101544.89
2023-04-30T09:18:18.877Z,101544.05
2023-04-30T09:21:08.930Z,101551.15
2023-04-30T09:23:57.436Z,101540.66
2023-04-30T09:26:44.335Z,101540.29
2023-04-30T09:29:37.180Z,101543.63
2023-04-30T09:32:23.871Z,101547.09
2023-04-30T09:35:29.762Z,101547.27
2023-04-30T09:38:30.369Z,101542.73
2023-04-30T09:41:28.501Z,101541.06
2023-04-30T09:44:30.058Z,101546.34
2023-04-30T09:47:19.177Z,101540.64
2023-04-30T09:50:06.133Z,101538.45
2023-04-30T09:52:54.108Z,101527.63
2023-04-30T09:55:45.946Z,101540.06
2023-04-30T09:58:37.271Z,101539.93
2023-04-30T10:01:28.126Z,101536.98
2023-04-30T10:04:15.700Z,101538.45
2023-04-30T10:07:05.890Z,101535.41
2023-04-30T10:10:11.135Z,101538.67
2023-04-30T10:13:06.452Z,101533.26
2023-04-30T10:15:59.001Z,101536.80
2023-04-30T10:18:50.701Z,101532.89
2023-04-30T10:21:41.843Z,101524.77
2023-04-30T10:24:29.124Z,101519.32
2023-04-30T10:27:15.990Z,101519.85
2023-04-30T10:30:03.089Z,101525.88
2023-04-30T10:32:55.676Z,101522.63
2023-04-30T10:35:55.173Z,101520.05
2023-04-30T10:38:41.907Z,101524.27
2023-04-30T10:41:29.537Z,101518.45
2023-04-30T10:44:22.189Z,101518.42
2023-04-30T10:47:08.724Z,101512.98
2023-04-30T10:50:03.312Z,101517.20
2023-04-30T10:53:03.233Z,101520.12
2023-04-30T10:56:01.271Z,101517.02
2023-04-30T10:58:50.737Z,101519.53
2023-04-30T11:01:58.271Z,101513.52
2023-04-30T11:05:06.765Z,101513.22
2023-04-30T11:07:59.475Z,101513.56
2023-04-30T11:11:01.787Z,101517.09
2023-04-30T11:13:59.042Z,101522.94
2023-04-30T11:16:49.514Z,101524.45
2023-04-30T11:19:36.166Z,101521.96
2023-04-30T11:22:24.637Z,101514.31
2023-04-30T11:25:15.587Z,101521.64
2023-04-30T11:28:02.207Z,101519.27
2023-04-30T11:30:59.799Z,101510.59
2023-04-30T11:33:46.442Z,101521.10
2023-04-30T11:36:34.895Z,101514.39
2023-04-30T11:39:22.507Z,101507.76
2023-04-30T11:42:09.368Z,101512.63
2023-04-30T11:45:03.040Z,101508.55
2023-04-30T11:47:54.740Z,101506.29
2023-04-30T11:50:43.151Z,101508.19
2023-04-30T11:53:29.656Z,101495.41
2023-04-30T11:56:22.043Z,101514.04
2023-04-30T11:59:12.655Z,101509.83
2023-04-30T12:01:59.134Z,101515.64
2023-04-30T12:04:47.196Z,101521.09
2023-04-30T12:07:34.322Z,101507.31
2023-04-30T12:10:20.923Z,101512.12
2023-04-30T12:13:07.402Z,101510.74
2023-04-30T12:15:59.325Z,101502.42
2023-04-30T12:18:46.924Z,101502.05
2023-04-30T12:21:34.546Z,101508.38
2023-04-30T12:24:21.272Z,101504.14
2023-04-30T12:27:08.049Z,101503.92
2023-04-30T12:29:56.570Z,101509.34
2023-04-30T12:32:44.885Z,101516.30
2023-04-30T12:35:32.220Z,101510.70
2023-04-30T12:38:18.866Z,101513.65
2023-04-30T12:41:05.351Z,101512.84
2023-04-30T12:43:51.752Z,101514.64
2023-04-30T12:46:38.280Z,101513.26
2023-04-30T12:49:27.449Z,101504.35
2023-04-30T12:52:14.203Z,101501.39
2023-04-30T12:55:28.538Z,101507.16
2023-04-30T12:58:16.636Z,101495.80
2023-04-30T13:01:03.096Z,101496.17
2023-04-30T13:03:49.814Z,101493.65
2023-04-30T13:06:36.846Z,101490.94
2023-04-30T13:09:22.973Z,101481.64
2023-04-30T13:12:09.618Z,101480.47
2023-04-30T13:14:57.406Z,101482.64
2023-04-30T13:17:44.694Z,101485.67
2023-04-30T13:20:31.218Z,101489.18
2023-04-30T13:23:18.186Z,101488.84
2023-04-30T13:26:04.858Z,101489.30
2023-04-30T13:28:51.569Z,101484.61
2023-04-30T13:31:38.114Z,101481.71
2023-04-30T13:34:24.675Z,101484.31
2023-04-30T13:37:11.325Z,101484.73
2023-04-30T13:39:59.503Z,101478.53
2023-04-30T13:42:47.434Z,101476.78
2023-04-30T13:45:34.178Z,101479.77
2023-04-30T13:48:20.732Z,101474.67
2023-04-30T13:51:07.476Z,101476.31
2023-04-30T13:53:53.871Z,101466.98
2023-04-30T13:56:40.530Z,101471.95
2023-04-30T13:59:26.938Z,101468.52
2023-04-30T14:02:13.580Z,101469.72
2023-04-30T14:05:05.901Z,101470.32
2023-04-30T14:07:53.109Z,101464.98
2023-04-30T14:10:39.798Z,101461.14
2023-04-30T14:13:25.865Z,101464.08
2023-04-30T14:16:12.481Z,101456.83
2023-04-30T14:18:59.133Z,101456.40
2023-04-30T14:21:46.687Z,101454.33
2023-04-30T14:24:34.153Z,101463.84
2023-04-30T14:27:21.230Z,101459.55
2023-04-30T14:30:09.268Z,101456.90
2023-04-30T14:32:55.968Z,101453.99
2023-04-30T14:35:42.945Z,101458.31
2023-04-30T14:38:29.216Z,101467.52
2023-04-30T14:41:16.475Z,101460.13
2023-04-30T14:44:04.447Z,101465.30
2023-04-30T14:46:51.432Z,101465.55
2023-04-30T14:49:38.150Z,101467.00
2023-04-30T14:52:25.014Z,101464.58
2023-04-30T14:55:11.451Z,101462.94
2023-04-30T14:57:58.890Z,101463.85
2023-04-30T15:00:46.313Z,101459.36
2023-04-30T15:03:32.819Z,101451.85
2023-04-30T15:06:19.308Z,101457.91
2023-04-30T15:09:06.543Z,101460.26
2023-04-30T15:11:53.014Z,101463.05
2023-04-30T15:14:39.613Z,101448.94
2023-04-30T15:17:26.171Z,101458.02
2023-04-30T15:20:12.444Z,101456.60
2023-04-30T15:22:59.188Z,101457.25
2023-04-30T15:25:45.856Z,101455.53
2023-04-30T15:28:32.873Z,101450.22
2023-04-30T15:31:19.489Z,101455.79
2023-04-30T15:34:06.028Z,101459.77
2023-04-30T15:36:52.615Z,101463.64
2023-04-30T15:39:39.792Z,101463.68
2023-04-30T15:42:26.402Z,101471.45
2023-04-30T15:45:13.359Z,101472.22
2023-04-30T15:48:00.660Z,101470.95
2023-04-30T15:50:47.420Z,101467.98
2023-04-30T15:53:34.090Z,101475.60
2023-04-30T15:56:25.721Z,101465.48
2023-04-30T15:59:17.558Z,101474.54
2023-04-30T16:02:06.564Z,101467.08
2023-04-30T16:04:52.993Z,101470.34
2023-04-30T16:07:41.240Z,101469.26
2023-04-30T16:10:29.116Z,101466.30
2023-04-30T16:13:15.886Z,101462.61
2023-04-30T16:16:03.421Z,101462.54
2023-04-30T16:18:50.998Z,101462.75
2023-04-30T16:21:38.574Z,101464.02
2023-04-30T16:24:25.141Z,101468.58
2023-04-30T16:27:11.845Z,101458.34
2023-04-30T16:29:58.698Z,101461.70
2023-04-30T16:32:45.120Z,101469.66
2023-04-30T16:35:31.660Z,101462.83
2023-04-30T16:38:18.570Z,101458.64
2023-04-30T16:41:04.962Z,101464.59
2023-04-30T16:43:51.698Z,101459.14
2023-04-30T16:46:38.512Z,101461.05
2023-04-30T16:49:25.555Z,101465.30
2023-04-30T16:52:12.731Z,101462.98
2023-04-30T16:54:59.394Z,101464.82
2023-04-30T16:57:46.185Z,101465.72
2023-04-30T17:00:32.750Z,101472.22
2023-04-30T17:03:19.286Z,101468.70
2023-04-30T17:06:06.791Z,101470.88
2023-04-30T17:08:54.421Z,101471.05
2023-04-30T17:11:41.480Z,101478.79
2023-04-30T17:14:28.565Z,101480.64
2023-04-30T17:17:15.146Z,101484.91
2023-04-30T17:20:01.607Z,101484.27
2023-04-30T17:22:47.811Z,101486.47
2023-04-30T17:25:34.196Z,101490.35
2023-04-30T17:28:20.936Z,101490.77
2023-04-30T17:31:09.303Z,101498.44
2023-04-30T17:33:55.915Z,101499.35
2023-04-30T17:36:42.872Z,101503.95
2023-04-30T17:39:32.449Z,101505.16
2023-04-30T17:42:19.673Z,101509.67
2023-04-30T17:45:07.193Z,101516.91
2023-04-30T17:47:53.814Z,101517.49
2023-04-30T17:50:40.510Z,101521.94
2023-04-30T17:53:27.167Z,101519.71
2023-04-30T17:56:13.658Z,101523.83
2023-04-30T17:59:00.655Z,101520.36
2023-04-30T18:01:47.165Z,101525.48
2023-04-30T18:04:34.336Z,101530.77
2023-04-30T18:07:20.602Z,101537.90
2023-04-30T18:10:08.354Z,101535.80
2023-04-30T18:12:54.945Z,101539.38
2023-04-30T18:15:41.429Z,101542.05
2023-04-30T18:18:28.012Z,101543.06
2023-04-30T18:21:14.905Z,101543.30
2023-04-30T18:24:01.829Z,101549.84
2023-04-30T18:26:47.924Z,101550.25
2023-04-30T18:29:35.549Z,101555.40
2023-04-30T18:32:22.002Z,101559.07
2023-04-30T18:35:09.103Z,101560.59
2023-04-30T18:37:55.949Z,101562.63
2023-04-30T18:40:42.462Z,101558.34
2023-04-30T18:43:29.014Z,101562.27
2023-04-30T18:46:15.392Z,101563.30
2023-04-30T18:49:03.974Z,101560.77
2023-04-30T18:51:50.480Z,101563.18
2023-04-30T18:54:37.073Z,101569.65
2023-04-30T18:57:24.039Z,101570.36
2023-04-30T19:00:13.122Z,101571.09
2023-04-30T19:03:00.465Z,101574.47
2023-04-30T19:05:47.220Z,101581.45
2023-04-30T19:08:34.825Z,101584.46
2023-04-30T19:11:21.736Z,101587.87
2023-04-30T19:14:08.422Z,101594.48
2023-04-30T19:16:55.575Z,101598.56
2023-04-30T19:19:42.937Z,101595.14
2023-04-30T19:22:29.090Z,101595.06
2023-04-30T19:25:15.873Z,101598.20
2023-04-30T19:28:02.782Z,101596.23
2023-04-30T19:30:56.513Z,101596.28
2023-04-30T19:33:43.057Z,101598.67
2023-04-30T19:36:29.981Z,101601.56
2023-04-30T19:39:16.903Z,101598.97
2023-04-30T19:42:04.234Z,101604.84
2023-04-30T19:44:54.296Z,101609.02
2023-04-30T19:47:41.133Z,101610.55
2023-04-30T19:50:27.489Z,101610.56
2023-04-30T19:53:16.228Z,101613.77
2023-04-30T19:56:02.863Z,101615.40
2023-04-30T19:58:49.242Z,101618.47
2023-04-30T20:01:36.810Z,101620.65
2023-04-30T20:04:23.752Z,101619.52
2023-04-30T20:07:10.282Z,101618.70
2023-04-30T20:09:56.823Z,101620.15
2023-04-30T20:12:43.302Z,101624.06
2023-04-30T20:15:30.045Z,101631.56
2023-04-30T20:18:16.435Z,101635.14
2023-04-30T20:21:02.839Z,101639.45
2023-04-30T20:23:49.362Z,101638.60
2023-04-30T20:26:36.645Z,101631.52
2023-04-30T20:29:23.408Z,101641.21
2023-04-30T20:32:09.982Z,101641.73
2023-04-30T20:34:56.756Z,101642.88
2023-04-30T20:37:43.321Z,101645.24
2023-04-30T20:40:29.671Z,101646.62
2023-04-30T20:43:16.804Z,101646.27
2023-04-30T20:46:03.515Z,101647.52
2023-04-30T20:48:49.980Z,101650.55
2023-04-30T20:51:38.676Z,101651.98
2023-04-30T20:54:25.850Z,101655.39
2023-04-30T20:57:12.093Z,101661.00
2023-04-30T20:59:58.788Z,101665.30
2023-04-30T21:02:45.847Z,101667.45
2023-04-30T21:05:32.348Z,101665.51
2023-04-30T21:08:18.700Z,101671.73
2023-04-30T21:11:05.217Z,101674.25
2023-04-30T21:13:52.396Z,101676.09
2023-04-30T21:16:40.852Z,101673.45
2023-04-30T21:19:27.577Z,101681.05
2023-04-30T21:22:13.952Z,101684.04
2023-04-30T21:25:00.764Z,101691.38
2023-04-30T21:27:47.351Z,101696.23
2023-04-30T21:30:33.748Z,101694.55
2023-04-30T21:33:20.972Z,101699.83
2023-04-30T21:36:07.545Z,101695.77
2023-04-30T21:38:55.523Z,101696.27
2023-04-30T21:41:41.821Z,101699.20
2023-04-30T21:44:32.556Z,101698.30
2023-04-30T21:47:18.671Z,101701.22
2023-04-30T21:50:05.768Z,101703.70
2023-04-30T21:52:52.831Z,101707.64
2023-04-30T21:55:39.104Z,101710.83
2023-04-30T21:58:26.003Z,101707.05
2023-04-30T22:01:13.394Z,101706.43
2023-04-30T22:03:59.854Z,101702.20
2023-04-30T22:06:47.432Z,101700.88
2023-04-30T22:09:34.344Z,101700.80
2023-04-30T22:12:21.611Z,101708.52
2023-04-30T22:15:09.168Z,101715.61
2023-04-30T22:17:55.340Z,101721.20
2023-04-30T22:20:42.076Z,101721.40
2023-04-30T22:23:28.969Z,101720.84
2023-04-30T22:26:15.536Z,101713.30
2023-04-30T22:29:01.931Z,101714.91
2023-04-30T22:31:48.502Z,101714.35
2023-04-30T22:34:40.165Z,101713.05
2023-04-30T22:37:26.569Z,101715.70
2023-04-30T22:40:13.286Z,101714.19
2023-04-30T22:43:01.100Z,101715.08
2023-04-30T22:45:50.382Z,101714.89
2023-04-30T22:48:37.003Z,101718.84
2023-04-30T22:51:23.674Z,101711.30
2023-04-30T22:54:10.258Z,101724.10
2023-04-30T22:56:56.777Z,101725.71
2023-04-30T22:59:43.051Z,101726.76
2023-04-30T23:02:30.468Z,101727.45
2023-04-30T23:05:17.298Z,101727.73
2023-04-30T23:08:04.518Z,101724.91
2023-04-30T23:10:53.166Z,101726.42
2023-04-30T23:13:40.755Z,101723.86
2023-04-30T23:16:27.142Z,101722.06
2023-04-30T23:19:13.696Z,101717.77
2023-04-30T23:21:59.951Z,101718.96
2023-04-30T23:24:46.452Z,101718.59
2023-04-30T23:27:34.006Z,101716.92
2023-04-30T23:30:21.490Z,101711.87
2023-04-30T23:33:08.196Z,101712.24
2023-04-30T23:35:54.963Z,101710.54
2023-04-30T23:38:42.857Z,101712.88
2023-04-30T23:41:29.175Z,101706.78
2023-04-30T23:44:15.894Z,101706.29
2023-04-30T23:47:02.373Z,101702.55
2023-04-30T23:49:48.668Z,101706.48
2023-04-30T23:52:36.809Z,101707.43
2023-04-30T23:55:23.473Z,101708.90
2023-04-30T23:58:09.892Z,101712.41
